Time;durP1;ratioP1;P1;durP2;ratioP2;P2;SDS_P1;SDS_P2;PMS_P1;PMS_P2;Temp;Humidity;BMP_temperature;BMP_pressure;BME280_temperature;BME280_humidity;BME280_pressure;Samples;Min_cycle;Max_cycle;Signal;HPM_P1;HPM_P2
2022/03/19 00:01:42;;;;;;;12.82;2.90;;;20.60;99.90;;;;;;5066528;28;21114;-79
2022/03/19 00:04:11;;;;;;;12.40;3.20;;;20.70;99.90;;;;;;5067031;28;20366;-79
2022/03/19 00:06:40;;;;;;;11.27;3.20;;;21.00;99.90;;;;;;5067883;28;20992;-80
2022/03/19 00:09:08;;;;;;;15.68;3.40;;;21.10;99.90;;;;;;5067372;28;20396;-78
2022/03/19 00:11:35;;;;;;;13.70;3.00;;;21.30;99.90;;;;;;5068343;28;20382;-86
2022/03/19 00:14:05;;;;;;;12.52;3.13;;;21.40;99.90;;;;;;5068029;28;20378;-85
2022/03/19 00:16:32;;;;;;;11.02;3.03;;;21.70;99.90;;;;;;5068459;28;20766;-85
2022/03/19 00:18:59;;;;;;;10.63;3.20;;;21.80;99.90;;;;;;5068758;28;20878;-83
2022/03/19 00:21:26;;;;;;;11.45;3.10;;;21.90;99.90;;;;;;5067538;28;20914;-89
2022/03/19 00:23:53;;;;;;;10.63;2.80;;;22.00;99.90;;;;;;5068203;28;20780;-77
2022/03/19 00:26:20;;;;;;;9.93;2.90;;;22.10;99.90;;;;;;5066966;28;20438;-89
2022/03/19 00:28:47;;;;;;;10.82;2.95;;;22.20;99.90;;;;;;5067504;28;20398;-83
2022/03/19 00:31:14;;;;;;;8.90;2.80;;;22.50;99.90;;;;;;5067638;28;20452;-77
2022/03/19 00:33:41;;;;;;;13.02;2.80;;;22.70;99.90;;;;;;5049868;28;20390;-80
2022/03/19 00:36:08;;;;;;;12.43;2.92;;;22.70;99.90;;;;;;5067651;28;20447;-82
2022/03/19 00:38:35;;;;;;;10.90;2.63;;;22.50;99.90;;;;;;5067491;28;20862;-86
2022/03/19 00:41:03;;;;;;;10.32;2.90;;;22.20;99.90;;;;;;5067382;28;20880;-81
2022/03/19 00:43:31;;;;;;;9.05;2.45;;;22.10;99.90;;;;;;5066992;28;20411;-86
2022/03/19 00:45:57;;;;;;;8.73;2.63;;;21.80;99.90;;;;;;5066489;28;20733;-83
2022/03/19 00:48:24;;;;;;;10.82;2.83;;;21.50;99.90;;;;;;5060209;28;20391;-85
2022/03/19 00:50:51;;;;;;;8.33;2.40;;;21.30;99.90;;;;;;5067118;28;20423;-82
2022/03/19 00:53:18;;;;;;;11.85;2.80;;;21.10;99.90;;;;;;5067219;28;20377;-81
2022/03/19 00:55:45;;;;;;;11.63;2.90;;;21.10;99.90;;;;;;5066880;28;20424;-84
2022/03/19 00:58:13;;;;;;;8.73;2.55;;;21.20;99.90;;;;;;5048000;28;20740;-87
2022/03/19 01:00:40;;;;;;;9.23;2.20;;;21.30;99.90;;;;;;5048528;28;20453;-83
2022/03/19 01:03:07;;;;;;;9.40;2.47;;;21.40;99.90;;;;;;5067044;28;20408;-79
2022/03/19 01:05:34;;;;;;;6.93;1.80;;;21.10;99.90;;;;;;5067356;28;20389;-83
2022/03/19 01:08:01;;;;;;;7.00;2.00;;;20.80;99.90;;;;;;5067226;28;20406;-87
2022/03/19 01:10:30;;;;;;;5.88;2.08;;;20.60;99.90;;;;;;5066977;28;20923;-79
2022/03/19 01:12:58;;;;;;;6.15;1.80;;;20.60;99.90;;;;;;5056299;28;20396;-87
2022/03/19 01:15:26;;;;;;;6.10;1.70;;;20.70;99.90;;;;;;5067356;28;20829;-82
2022/03/19 01:17:53;;;;;;;6.28;1.85;;;20.90;99.90;;;;;;5067346;28;20476;-80
2022/03/19 01:20:21;;;;;;;5.50;1.83;;;21.00;99.90;;;;;;5066978;28;20792;-76
2022/03/19 01:22:49;;;;;;;7.57;1.98;;;21.10;99.90;;;;;;5067131;28;20419;-80
2022/03/19 01:25:18;;;;;;;6.68;1.88;;;21.20;99.90;;;;;;5061304;28;20816;-81
2022/03/19 01:27:46;;;;;;;5.70;1.88;;;21.20;99.90;;;;;;5064858;28;20390;-78
2022/03/19 01:30:16;;;;;;;7.53;1.88;;;21.40;99.90;;;;;;5055065;28;20379;-76
2022/03/19 01:32:43;;;;;;;5.50;1.80;;;21.60;99.90;;;;;;5031033;28;20390;-75
2022/03/19 01:35:11;;;;;;;5.70;1.80;;;21.70;99.90;;;;;;5066559;28;20370;-76
2022/03/19 01:37:39;;;;;;;5.47;1.80;;;21.90;99.90;;;;;;5066424;28;20782;-77
2022/03/19 01:40:08;;;;;;;8.38;1.92;;;22.00;99.90;;;;;;5050277;28;20945;-77
2022/03/19 01:42:39;;;;;;;4.90;2.03;;;22.10;99.90;;;;;;5047100;28;20733;-76
2022/03/19 01:45:11;;;;;;;5.80;1.85;;;22.20;99.90;;;;;;5055365;28;20377;-81
2022/03/19 01:47:38;;;;;;;5.88;1.90;;;22.50;99.90;;;;;;5055897;28;20399;-76
2022/03/19 01:50:05;;;;;;;5.85;1.70;;;22.80;99.90;;;;;;5046724;28;20494;-75
2022/03/19 01:52:32;;;;;;;5.95;1.80;;;23.00;99.90;;;;;;5046337;28;20395;-78
2022/03/19 01:54:59;;;;;;;4.82;1.90;;;22.90;99.90;;;;;;5064751;28;20386;-77
2022/03/19 01:57:35;;;;;;;7.13;2.10;;;22.70;99.90;;;;;;5066392;28;20365;-79
2022/03/19 02:00:03;;;;;;;7.57;2.00;;;22.90;99.90;;;;;;5066573;28;20408;-79
2022/03/19 02:02:31;;;;;;;8.73;2.13;;;23.30;99.90;;;;;;5066154;28;20413;-76
2022/03/19 02:05:03;;;;;;;6.25;2.00;;;24.00;99.90;;;;;;5064769;28;20389;-78
2022/03/19 02:07:33;;;;;;;8.20;2.10;;;24.70;99.90;;;;;;5066359;28;20382;-83
2022/03/19 02:10:01;;;;;;;9.20;2.27;;;24.80;99.90;;;;;;5066402;28;20373;-76
2022/03/19 02:12:28;;;;;;;6.40;2.03;;;24.90;99.90;;;;;;5066429;28;20477;-77
2022/03/19 02:14:57;;;;;;;7.22;2.20;;;24.80;99.90;;;;;;5048223;28;20393;-79
2022/03/19 02:17:26;;;;;;;5.53;1.93;;;24.80;99.90;;;;;;5066619;28;20396;-92
2022/03/19 02:19:55;;;;;;;9.13;2.08;;;24.30;99.90;;;;;;5056942;28;20470;-78
2022/03/19 02:22:26;;;;;;;6.95;2.10;;;24.10;99.90;;;;;;5056305;28;20487;-78
2022/03/19 02:27:41;;;;;;;8.83;2.07;;;24.70;99.90;;;;;;5066482;28;20953;-77
2022/03/19 02:30:14;;;;;;;5.60;2.00;;;25.50;99.90;;;;;;5060813;28;20385;-77
2022/03/19 02:32:49;;;;;;;9.55;2.20;;;25.40;99.90;;;;;;5050517;28;20399;-78
2022/03/19 02:35:17;;;;;;;7.68;2.28;;;25.20;99.90;;;;;;5046316;28;20394;-77
2022/03/19 02:37:48;;;;;;;6.53;2.10;;;25.30;99.90;;;;;;5049854;28;20390;-78
2022/03/19 02:40:17;;;;;;;8.35;2.20;;;25.50;99.90;;;;;;5066031;28;20440;-78
2022/03/19 02:42:51;;;;;;;7.95;2.10;;;25.60;99.90;;;;;;5045817;28;20427;-78
2022/03/19 02:45:20;;;;;;;8.00;2.30;;;26.00;99.90;;;;;;5047244;28;20376;-77
2022/03/19 02:47:59;;;;;;;10.27;2.70;;;26.00;99.90;;;;;;5060118;28;20473;-80
2022/03/19 02:50:45;;;;;;;8.35;2.58;;;26.00;98.80;;;;;;5044538;28;20435;-80
2022/03/19 02:53:12;;;;;;;10.70;2.40;;;26.50;98.30;;;;;;5050158;28;20475;-80
2022/03/19 02:55:41;;;;;;;8.32;2.50;;;26.40;99.00;;;;;;5050089;28;20371;-85
2022/03/19 02:58:10;;;;;;;9.82;2.70;;;26.30;97.20;;;;;;5069514;28;20472;-83
2022/03/19 03:00:38;;;;;;;11.07;2.80;;;26.10;96.40;;;;;;5073766;28;20945;-80
2022/03/19 03:03:05;;;;;;;8.43;2.50;;;25.70;97.80;;;;;;5069996;28;20463;-86
2022/03/19 03:05:33;;;;;;;9.10;2.50;;;25.50;99.10;;;;;;5051126;28;20378;-82
2022/03/19 03:08:00;;;;;;;8.57;2.63;;;25.40;98.10;;;;;;5068718;28;20428;-81
2022/03/19 03:10:29;;;;;;;11.05;2.92;;;25.20;99.80;;;;;;5031521;28;20384;-82
2022/03/19 03:12:56;;;;;;;10.63;2.90;;;24.80;99.90;;;;;;5061768;28;20485;-79
2022/03/19 03:15:23;;;;;;;11.15;2.70;;;24.60;99.90;;;;;;5069106;28;20402;-83
2022/03/19 03:17:50;;;;;;;11.77;2.87;;;24.20;99.90;;;;;;5067149;28;20435;-87
2022/03/19 03:20:17;;;;;;;8.70;2.50;;;22.90;99.90;;;;;;5051775;28;20508;-91
2022/03/19 03:22:44;;;;;;;7.13;2.05;;;23.50;99.90;;;;;;5068599;28;20424;-84
2022/03/19 03:25:11;;;;;;;8.40;2.40;;;23.40;99.90;;;;;;5069590;28;20374;-88
2022/03/19 03:27:38;;;;;;;9.82;2.40;;;23.10;99.90;;;;;;5070554;28;20756;-78
2022/03/19 03:30:06;;;;;;;11.43;2.75;;;23.10;99.90;;;;;;5070371;28;20386;-87
2022/03/19 03:32:33;;;;;;;10.50;2.53;;;23.10;99.90;;;;;;5067952;28;20754;-83
2022/03/19 03:35:00;;;;;;;8.23;2.50;;;23.10;99.90;;;;;;5068993;28;20382;-80
2022/03/19 03:37:27;;;;;;;11.15;2.63;;;23.00;99.90;;;;;;5062389;28;20752;-90
2022/03/19 03:39:54;;;;;;;11.30;2.55;;;23.00;99.90;;;;;;5063920;28;20526;-86
2022/03/19 03:42:21;;;;;;;13.17;2.80;;;23.10;99.90;;;;;;5062661;28;20492;-85
2022/03/19 03:44:48;;;;;;;10.52;2.70;;;23.00;99.90;;;;;;5048520;28;20828;-84
2022/03/19 03:47:15;;;;;;;10.45;2.70;;;23.10;99.90;;;;;;5048601;28;20401;-94
2022/03/19 03:49:42;;;;;;;12.68;3.00;;;23.20;99.90;;;;;;5066061;28;20800;-83
2022/03/19 03:52:09;;;;;;;13.23;2.88;;;23.40;99.90;;;;;;5067297;28;20485;-85
2022/03/19 03:54:36;;;;;;;13.17;2.83;;;23.70;99.90;;;;;;5067364;28;20381;-82
2022/03/19 03:57:03;;;;;;;12.70;2.80;;;24.20;99.90;;;;;;5048484;28;20722;-88
2022/03/19 03:59:31;;;;;;;14.70;2.92;;;24.60;99.50;;;;;;5067125;28;20374;-82
2022/03/19 04:01:58;;;;;;;13.18;3.10;;;24.80;98.10;;;;;;5067662;28;20437;-81
2022/03/19 04:04:25;;;;;;;11.80;3.00;;;25.00;97.70;;;;;;5068132;28;20386;-82
2022/03/19 04:06:52;;;;;;;11.23;2.67;;;25.40;97.10;;;;;;5067549;28;20431;-86
2022/03/19 04:09:19;;;;;;;11.30;2.80;;;25.60;96.70;;;;;;5068028;28;20374;-88
2022/03/19 04:11:47;;;;;;;13.68;3.13;;;25.50;96.10;;;;;;5069057;28;20388;-85
2022/03/19 04:14:14;;;;;;;11.27;2.90;;;25.40;96.00;;;;;;5039697;28;20391;-90
2022/03/19 04:16:41;;;;;;;14.95;3.13;;;25.20;96.10;;;;;;5056070;28;20486;-82
2022/03/19 04:19:08;;;;;;;13.05;3.20;;;25.10;96.50;;;;;;5067372;28;20751;-82
2022/03/19 04:21:35;;;;;;;13.30;3.03;;;25.00;97.30;;;;;;5067134;28;20386;-82
2022/03/19 04:24:02;;;;;;;13.80;3.13;;;25.10;97.00;;;;;;5048177;28;20409;-83
2022/03/19 04:26:29;;;;;;;10.75;2.60;;;25.10;97.40;;;;;;5067119;28;20413;-86
2022/03/19 04:28:58;;;;;;;9.98;3.22;;;25.20;94.40;;;;;;5063882;28;20383;-89
2022/03/19 04:31:25;;;;;;;10.98;2.78;;;25.50;91.50;;;;;;5066818;28;20385;-87
2022/03/19 04:33:52;;;;;;;9.45;2.40;;;26.20;90.60;;;;;;5068828;28;20378;-89
2022/03/19 04:36:32;;;;;;;9.87;2.30;;;27.60;80.50;;;;;;5070303;28;20409;-85
2022/03/19 04:39:02;;;;;;;8.32;2.33;;;27.70;75.80;;;;;;5070005;28;20460;-89
2022/03/19 04:41:30;;;;;;;9.32;2.58;;;26.90;75.80;;;;;;5061700;28;20893;-87
2022/03/19 04:43:57;;;;;;;8.85;2.30;;;26.20;79.60;;;;;;5062319;28;20398;-86
2022/03/19 04:46:24;;;;;;;12.75;2.58;;;25.70;82.30;;;;;;5066637;28;20397;-87
2022/03/19 04:48:52;;;;;;;10.43;2.90;;;25.30;87.20;;;;;;5066879;28;20469;-85
2022/03/19 04:51:21;;;;;;;12.68;2.60;;;25.10;90.10;;;;;;5066308;28;20389;-87
2022/03/19 04:53:50;;;;;;;7.25;2.50;;;25.10;90.10;;;;;;5068334;28;20421;-85
2022/03/19 04:56:24;;;;;;;9.25;2.40;;;26.40;86.80;;;;;;5068094;28;20378;-92
2022/03/19 04:58:53;;;;;;;10.07;2.60;;;26.70;81.60;;;;;;5067912;28;20385;-85
2022/03/19 05:01:20;;;;;;;11.32;2.40;;;26.10;81.80;;;;;;5067995;28;20401;-85
2022/03/19 05:03:47;;;;;;;7.93;2.60;;;25.40;83.10;;;;;;5066787;28;20409;-89
2022/03/19 05:06:14;;;;;;;11.50;2.55;;;25.00;85.50;;;;;;5067623;28;20746;-88
2022/03/19 05:08:41;;;;;;;10.15;2.65;;;24.70;87.50;;;;;;5065806;28;20388;-83
2022/03/19 05:11:15;;;;;;;10.60;2.63;;;24.50;89.30;;;;;;5067648;28;20413;-82
2022/03/19 05:13:52;;;;;;;14.48;2.65;;;24.40;90.40;;;;;;5066157;28;20795;-85
2022/03/19 05:16:19;;;;;;;11.50;2.40;;;24.40;90.20;;;;;;5067763;28;20389;-88
2022/03/19 05:18:46;;;;;;;9.68;2.47;;;24.40;88.70;;;;;;5067575;28;20439;-84
2022/03/19 05:21:13;;;;;;;10.05;2.72;;;24.20;89.80;;;;;;5068621;28;20374;-82
2022/03/19 05:23:44;;;;;;;9.07;2.28;;;24.00;88.30;;;;;;5067500;28;20402;-87
2022/03/19 05:26:11;;;;;;;8.00;2.47;;;24.00;87.90;;;;;;5067226;28;20858;-90
2022/03/19 05:28:39;;;;;;;9.52;2.35;;;24.00;86.90;;;;;;5068305;28;20496;-91
2022/03/19 05:31:08;;;;;;;9.90;2.47;;;24.30;84.90;;;;;;5067830;28;20381;-83
2022/03/19 05:36:27;;;;;;;9.82;2.70;;;24.70;83.10;;;;;;5067404;28;20489;-89
2022/03/19 05:38:54;;;;;;;7.45;2.45;;;24.70;81.50;;;;;;5067568;28;20370;-86
2022/03/19 05:41:21;;;;;;;10.32;2.63;;;24.70;81.10;;;;;;5068802;28;20386;-91
2022/03/19 05:43:48;;;;;;;11.27;2.75;;;24.50;80.70;;;;;;5066310;28;20417;-85
2022/03/19 05:46:15;;;;;;;10.20;2.47;;;24.60;83.20;;;;;;5070281;28;20456;-90
2022/03/19 05:48:42;;;;;;;13.00;2.70;;;24.70;82.40;;;;;;5065665;28;20382;-86
2022/03/19 05:51:09;;;;;;;9.48;2.60;;;25.10;79.40;;;;;;5066427;28;20389;-86
2022/03/19 05:53:41;;;;;;;10.10;2.67;;;25.40;77.80;;;;;;5061304;28;20392;-89
2022/03/19 05:56:08;;;;;;;9.05;2.22;;;26.00;76.30;;;;;;5051860;28;20386;-86
2022/03/19 05:58:35;;;;;;;8.65;2.78;;;26.90;72.90;;;;;;5066785;28;20408;-82
2022/03/19 06:01:02;;;;;;;9.43;2.75;;;27.50;68.20;;;;;;5066917;28;20410;-91
2022/03/19 06:03:29;;;;;;;11.25;2.67;;;27.30;67.50;;;;;;5064469;28;20403;-88
2022/03/19 06:05:56;;;;;;;9.93;2.78;;;26.80;70.20;;;;;;5064137;28;20382;-84
2022/03/19 06:08:23;;;;;;;12.77;2.90;;;26.30;72.00;;;;;;5063686;28;20379;-88
2022/03/19 06:10:50;;;;;;;10.68;2.95;;;26.10;76.00;;;;;;5053129;28;20389;-88
2022/03/19 06:13:17;;;;;;;10.27;3.00;;;26.40;76.90;;;;;;5054005;28;20376;-84
2022/03/19 06:15:44;;;;;;;10.70;2.97;;;27.00;75.70;;;;;;5046932;28;20383;-84
2022/03/19 06:18:11;;;;;;;12.45;2.95;;;26.60;72.80;;;;;;5046787;28;20472;-86
2022/03/19 06:20:38;;;;;;;11.48;2.90;;;26.10;74.40;;;;;;5049747;28;20431;-88
2022/03/19 06:23:05;;;;;;;10.75;3.00;;;25.70;72.10;;;;;;5060775;28;20882;-83
2022/03/19 06:25:33;;;;;;;9.20;2.67;;;25.10;75.20;;;;;;5072731;28;20382;-85
2022/03/19 06:28:00;;;;;;;11.85;2.97;;;24.80;78.00;;;;;;5073279;28;20434;-84
2022/03/19 06:30:27;;;;;;;13.77;2.97;;;24.70;79.80;;;;;;5072164;28;20403;-85
2022/03/19 06:32:55;;;;;;;10.97;3.00;;;25.20;80.20;;;;;;5060091;28;20423;-87
2022/03/19 06:38:07;;;;;;;11.73;3.00;;;25.60;82.10;;;;;;5062790;28;20406;-85
2022/03/19 06:40:36;;;;;;;12.93;3.10;;;26.50;81.50;;;;;;5070397;28;20880;-90
2022/03/19 06:43:03;;;;;;;11.63;2.92;;;27.30;78.90;;;;;;5069929;28;20400;-87
2022/03/19 06:45:30;;;;;;;11.88;2.90;;;27.70;77.30;;;;;;5042642;28;20466;-89
2022/03/19 06:47:57;;;;;;;10.17;3.20;;;28.10;75.30;;;;;;5055030;28;20382;-85
2022/03/19 06:50:24;;;;;;;11.20;3.00;;;28.40;74.10;;;;;;5051349;28;20392;-87
2022/03/19 06:52:51;;;;;;;11.40;3.30;;;28.50;71.90;;;;;;5057935;28;20403;-83
2022/03/19 06:55:18;;;;;;;14.05;3.15;;;28.30;72.10;;;;;;5066269;28;20393;-83
2022/03/19 06:57:45;;;;;;;9.95;3.25;;;28.00;73.40;;;;;;5070367;28;20393;-88
2022/03/19 07:00:15;;;;;;;11.73;3.03;;;27.80;74.90;;;;;;5077193;28;20379;-83
2022/03/19 07:02:50;;;;;;;13.32;3.70;;;27.70;75.20;;;;;;5051142;28;20405;-90
2022/03/19 07:05:24;;;;;;;13.15;3.33;;;27.20;76.40;;;;;;5070028;28;20371;-84
2022/03/19 07:07:53;;;;;;;16.03;3.50;;;26.80;78.30;;;;;;5064348;28;20477;-91
2022/03/19 07:10:21;;;;;;;14.43;3.60;;;26.60;79.00;;;;;;5069818;28;20419;-85
2022/03/19 07:12:50;;;;;;;11.35;3.20;;;26.40;81.10;;;;;;5069065;28;20402;-88
2022/03/19 07:15:24;;;;;;;12.70;3.15;;;26.30;81.60;;;;;;5069027;28;20374;-86
2022/03/19 07:17:55;;;;;;;16.95;3.55;;;26.10;82.70;;;;;;5061621;28;20398;-88
2022/03/19 07:20:26;;;;;;;16.13;3.43;;;25.70;83.40;;;;;;5069336;28;20523;-87
2022/03/19 07:23:06;;;;;;;15.05;3.33;;;25.10;85.60;;;;;;5058006;28;20448;-84
2022/03/19 07:25:40;;;;;;;16.38;3.47;;;24.30;89.40;;;;;;5068733;28;20756;-88
2022/03/19 07:28:10;;;;;;;14.15;3.35;;;23.60;91.90;;;;;;5063222;28;20435;-83
2022/03/19 07:30:40;;;;;;;18.83;3.60;;;23.00;94.60;;;;;;5049857;28;20385;-87
2022/03/19 07:33:08;;;;;;;17.95;3.45;;;22.50;97.20;;;;;;5067282;28;20386;-88
2022/03/19 07:35:36;;;;;;;17.08;3.08;;;22.20;98.90;;;;;;5070343;28;20385;-82
2022/03/19 07:38:04;;;;;;;14.67;3.30;;;21.80;99.90;;;;;;5069514;28;20858;-87
2022/03/19 07:43:23;;;;;;;18.08;3.63;;;21.40;99.90;;;;;;5059675;28;20421;-86
2022/03/19 07:45:52;;;;;;;15.60;3.53;;;21.20;99.90;;;;;;5068818;28;20416;-83
2022/03/19 07:48:19;;;;;;;16.67;3.45;;;21.10;99.90;;;;;;5053113;28;20391;-87
2022/03/19 07:50:46;;;;;;;15.13;3.40;;;20.90;99.90;;;;;;5058955;28;20424;-86
2022/03/19 07:53:13;;;;;;;18.13;3.70;;;20.80;99.90;;;;;;5050403;28;20398;-85
2022/03/19 07:55:41;;;;;;;14.20;3.33;;;20.70;99.90;;;;;;5068098;28;20770;-84
2022/03/19 07:58:11;;;;;;;17.35;3.30;;;20.60;99.90;;;;;;5068749;28;20862;-82
2022/03/19 08:00:38;;;;;;;17.67;3.33;;;20.60;99.90;;;;;;5068842;28;20401;-85
2022/03/19 08:03:08;;;;;;;14.80;3.40;;;20.50;99.90;;;;;;5068206;28;20406;-85
2022/03/19 08:05:35;;;;;;;15.90;3.40;;;20.40;99.90;;;;;;5050834;28;20507;-82
2022/03/19 08:08:06;;;;;;;14.87;3.40;;;20.30;99.90;;;;;;5068928;28;20381;-88
2022/03/19 08:10:36;;;;;;;16.10;3.40;;;20.10;99.90;;;;;;5065726;28;20374;-85
2022/03/19 08:13:06;;;;;;;18.00;3.45;;;20.10;99.90;;;;;;5053741;28;20386;-86
2022/03/19 08:15:34;;;;;;;17.88;3.78;;;20.00;99.90;;;;;;5068021;28;20394;-87
2022/03/19 08:18:02;;;;;;;18.00;3.40;;;20.00;99.90;;;;;;5068427;28;20863;-87
2022/03/19 08:20:29;;;;;;;15.88;3.60;;;19.90;99.90;;;;;;5049949;28;21263;-87
2022/03/19 08:22:56;;;;;;;21.17;3.60;;;19.80;99.90;;;;;;5066920;28;20424;-86
2022/03/19 08:25:24;;;;;;;18.60;3.80;;;19.80;99.90;;;;;;5067073;28;20400;-87
2022/03/19 08:27:51;;;;;;;15.40;3.60;;;19.70;99.90;;;;;;5066678;28;20433;-85
2022/03/19 08:30:19;;;;;;;19.70;3.80;;;19.70;99.90;;;;;;5049431;28;20378;-85
2022/03/19 08:32:47;;;;;;;15.93;3.60;;;19.60;99.90;;;;;;5067100;28;20422;-86
2022/03/19 08:35:18;;;;;;;18.60;3.30;;;19.50;99.90;;;;;;5066747;28;20390;-85
2022/03/19 08:37:45;;;;;;;20.08;4.20;;;19.50;99.90;;;;;;5059995;28;20391;-85
2022/03/19 08:40:16;;;;;;;18.13;3.50;;;19.40;99.90;;;;;;5048759;28;20376;-83
2022/03/19 08:42:53;;;;;;;17.50;3.60;;;19.40;99.90;;;;;;5067271;28;20413;-85
2022/03/19 08:45:21;;;;;;;18.67;3.80;;;19.40;99.90;;;;;;5063706;28;20909;-85
2022/03/19 08:47:51;;;;;;;16.35;3.55;;;19.30;99.90;;;;;;5057047;28;20482;-82
2022/03/19 08:50:18;;;;;;;15.80;3.40;;;19.20;99.90;;;;;;5047766;28;20372;-87
2022/03/19 08:52:48;;;;;;;16.13;3.42;;;19.20;99.90;;;;;;5066239;28;20409;-85
2022/03/19 08:55:14;;;;;;;18.00;3.65;;;19.10;99.90;;;;;;5067106;28;20384;-81
2022/03/19 08:57:41;;;;;;;16.42;3.20;;;19.10;99.90;;;;;;5067814;28;20410;-85
2022/03/19 09:00:09;;;;;;;16.58;3.58;;;19.00;99.90;;;;;;5061862;28;20740;-81
2022/03/19 09:02:39;;;;;;;17.10;3.40;;;19.00;99.90;;;;;;5067124;28;20443;-82
2022/03/19 09:05:07;;;;;;;17.80;3.47;;;18.90;99.90;;;;;;5067011;28;20375;-85
2022/03/19 09:07:34;;;;;;;17.98;3.70;;;18.90;99.90;;;;;;5066246;28;20866;-85
2022/03/19 09:10:01;;;;;;;20.13;3.88;;;18.90;99.90;;;;;;5067138;28;20394;-84
2022/03/19 09:12:29;;;;;;;17.47;3.63;;;18.90;99.90;;;;;;5067786;28;20749;-85
2022/03/19 09:14:56;;;;;;;15.68;3.30;;;18.80;99.90;;;;;;5066862;28;20790;-85
2022/03/19 09:17:23;;;;;;;14.18;3.50;;;18.80;99.90;;;;;;5067245;28;20767;-84
2022/03/19 09:19:50;;;;;;;13.27;3.17;;;18.70;99.90;;;;;;5061334;28;20415;-85
2022/03/19 09:22:17;;;;;;;19.63;3.63;;;18.80;99.90;;;;;;5060626;28;20427;-84
2022/03/19 09:24:48;;;;;;;18.25;3.78;;;18.80;99.90;;;;;;5063689;28;20481;-82
2022/03/19 09:27:15;;;;;;;17.80;3.80;;;18.70;99.90;;;;;;5066883;28;20386;-81
2022/03/19 09:29:42;;;;;;;20.97;3.90;;;18.70;99.90;;;;;;5066909;28;20441;-83
2022/03/19 09:32:12;;;;;;;35.95;4.63;;;18.60;99.90;;;;;;5067312;28;20382;-85
2022/03/19 09:34:40;;;;;;;18.55;3.85;;;18.50;99.90;;;;;;5067079;28;20378;-82
2022/03/19 09:37:07;;;;;;;20.73;4.72;;;18.40;99.90;;;;;;5047751;28;20385;-84
2022/03/19 09:39:34;;;;;;;18.67;4.00;;;18.40;99.90;;;;;;5067245;28;20865;-84
2022/03/19 09:42:02;;;;;;;18.52;3.92;;;18.40;99.90;;;;;;5065686;28;20401;-85
2022/03/19 09:44:30;;;;;;;28.97;14.60;;;18.40;99.90;;;;;;5066818;28;20409;-81
2022/03/19 09:46:57;;;;;;;29.27;14.70;;;18.50;99.90;;;;;;5066373;28;20378;-86
2022/03/19 09:49:24;;;;;;;52.03;29.50;;;18.60;99.90;;;;;;5066373;28;20386;-82
2022/03/19 09:51:55;;;;;;;48.17;30.40;;;18.60;99.90;;;;;;5049008;28;20400;-86
2022/03/19 09:54:23;;;;;;;46.88;30.02;;;18.70;99.90;;;;;;5069695;28;20392;-81
2022/03/19 09:56:50;;;;;;;44.22;25.83;;;18.80;99.90;;;;;;5072667;28;20378;-85
2022/03/19 09:59:18;;;;;;;37.83;23.75;;;18.80;99.90;;;;;;5075079;28;20397;-86
2022/03/19 10:01:49;;;;;;;34.78;19.85;;;18.80;99.90;;;;;;5073253;28;20890;-85
2022/03/19 10:04:20;;;;;;;32.22;16.88;;;18.90;99.90;;;;;;5071231;28;20400;-84
2022/03/19 10:09:47;;;;;;;22.40;8.77;;;18.80;99.90;;;;;;5070592;28;20486;-87
2022/03/19 10:12:27;;;;;;;22.90;8.27;;;18.70;99.90;;;;;;5052791;28;20500;-83
2022/03/19 10:14:56;;;;;;;19.80;6.00;;;18.70;99.90;;;;;;5086984;28;20740;-83
2022/03/19 10:17:41;;;;;;;17.77;5.60;;;18.70;99.90;;;;;;5038178;28;20399;-81
2022/03/19 10:20:13;;;;;;;18.63;5.35;;;18.70;99.90;;;;;;5051565;28;20873;-86
2022/03/19 10:22:45;;;;;;;17.13;5.40;;;18.70;99.90;;;;;;5070274;28;20414;-83
2022/03/19 10:25:19;;;;;;;16.83;5.93;;;18.80;99.90;;;;;;5069817;28;20393;-89
2022/03/19 10:27:48;;;;;;;20.23;4.90;;;18.80;99.90;;;;;;5070430;28;20392;-88
2022/03/19 10:30:20;;;;;;;17.93;4.57;;;18.80;99.90;;;;;;5070309;28;20366;-85
2022/03/19 10:32:58;;;;;;;22.63;4.07;;;18.70;99.90;;;;;;5070637;28;20386;-84
2022/03/19 10:35:26;;;;;;;14.32;3.90;;;18.70;99.90;;;;;;5052710;28;20386;-81
2022/03/19 10:37:55;;;;;;;17.42;4.10;;;18.70;99.90;;;;;;5069731;28;20390;-87
2022/03/19 10:40:22;;;;;;;17.00;4.38;;;18.60;99.90;;;;;;5049686;28;20788;-83
2022/03/19 10:42:59;;;;;;;16.15;3.95;;;18.60;99.90;;;;;;5061997;28;20413;-85
2022/03/19 10:45:26;;;;;;;19.42;4.10;;;18.60;99.90;;;;;;5069373;28;20389;-82
2022/03/19 10:47:56;;;;;;;16.30;4.03;;;18.50;99.90;;;;;;5052132;28;20477;-87
2022/03/19 10:50:24;;;;;;;19.50;4.00;;;18.50;99.90;;;;;;5070160;28;20455;-81
2022/03/19 10:52:57;;;;;;;16.30;3.90;;;18.50;99.90;;;;;;5069520;28;20456;-86
2022/03/19 10:55:24;;;;;;;14.97;4.07;;;18.50;99.90;;;;;;5069659;28;20459;-85
2022/03/19 10:57:55;;;;;;;16.33;4.10;;;18.40;99.90;;;;;;5069506;28;20439;-84
2022/03/19 11:00:22;;;;;;;17.13;4.20;;;18.50;99.90;;;;;;5069445;28;20378;-84
2022/03/19 11:02:54;;;;;;;16.55;4.40;;;18.40;99.90;;;;;;5070336;28;20402;-83
2022/03/19 11:05:24;;;;;;;18.08;4.28;;;18.30;99.90;;;;;;5069254;28;20394;-85
2022/03/19 11:07:56;;;;;;;19.75;4.05;;;18.20;99.90;;;;;;5049992;28;20380;-83
2022/03/19 11:10:24;;;;;;;15.27;4.03;;;18.20;99.90;;;;;;5050244;28;20407;-82
2022/03/19 11:12:56;;;;;;;13.73;3.80;;;18.10;99.90;;;;;;5034550;28;20460;-85
2022/03/19 11:15:30;;;;;;;19.07;4.10;;;18.00;99.90;;;;;;5069327;28;20386;-85
2022/03/19 11:18:00;;;;;;;17.70;4.40;;;18.00;99.90;;;;;;5069687;28;20427;-86
2022/03/19 11:20:31;;;;;;;17.08;4.05;;;17.90;99.90;;;;;;5069123;28;20370;-85
2022/03/19 11:23:01;;;;;;;20.38;4.10;;;17.80;99.90;;;;;;5069550;28;20894;-85
2022/03/19 11:25:30;;;;;;;15.95;4.07;;;17.70;99.90;;;;;;5068827;28;20845;-81
2022/03/19 11:28:06;;;;;;;18.70;3.97;;;17.70;99.90;;;;;;5068853;28;20443;-85
2022/03/19 11:30:40;;;;;;;16.40;3.78;;;17.60;99.90;;;;;;5069162;28;20811;-85
2022/03/19 11:33:16;;;;;;;15.13;3.90;;;17.50;99.90;;;;;;5069390;28;20366;-81
2022/03/19 11:35:58;;;;;;;17.88;3.72;;;17.50;99.90;;;;;;5059888;28;20385;-83
2022/03/19 11:38:26;;;;;;;19.83;4.25;;;17.40;99.90;;;;;;5059337;28;20391;-80
2022/03/19 11:40:58;;;;;;;16.50;3.72;;;17.30;99.90;;;;;;5049533;28;20387;-84
2022/03/19 11:43:33;;;;;;;16.00;3.97;;;17.20;99.90;;;;;;5049188;28;20426;-84
2022/03/19 11:46:05;;;;;;;17.20;3.70;;;17.20;99.90;;;;;;5050034;28;20799;-86
2022/03/19 11:48:50;;;;;;;19.30;3.73;;;17.10;99.90;;;;;;5065873;28;20443;-83
2022/03/19 11:51:31;;;;;;;13.23;3.53;;;17.10;99.90;;;;;;5068537;28;20401;-84
2022/03/19 11:54:15;;;;;;;14.23;3.80;;;17.10;99.90;;;;;;5069001;28;20370;-83
2022/03/19 11:56:42;;;;;;;18.58;4.05;;;17.10;99.90;;;;;;5068811;28;20850;-83
2022/03/19 11:59:24;;;;;;;16.83;3.83;;;17.00;99.90;;;;;;5068504;28;20385;-82
2022/03/19 12:01:58;;;;;;;18.63;3.83;;;16.90;99.90;;;;;;5068275;28;20398;-84
2022/03/19 12:04:39;;;;;;;15.75;3.40;;;16.90;99.90;;;;;;5061555;28;20740;-81
2022/03/19 12:07:06;;;;;;;16.58;3.85;;;16.80;99.90;;;;;;5068407;28;20481;-80
2022/03/19 12:09:53;;;;;;;19.83;3.90;;;16.70;99.90;;;;;;5068613;28;20374;-81
2022/03/19 12:12:24;;;;;;;18.40;4.03;;;16.80;99.90;;;;;;5065315;28;20390;-80
2022/03/19 12:14:52;;;;;;;15.63;3.73;;;16.70;99.90;;;;;;5067960;28;20386;-81
2022/03/19 12:17:31;;;;;;;17.63;3.97;;;16.70;99.90;;;;;;5058623;28;20416;-83
2022/03/19 12:20:04;;;;;;;17.70;3.67;;;16.80;99.90;;;;;;5048838;28;20783;-85
2022/03/19 12:22:41;;;;;;;18.83;3.83;;;16.70;99.90;;;;;;5047613;28;20388;-82
2022/03/19 12:25:20;;;;;;;19.20;3.88;;;16.70;99.90;;;;;;5048189;28;20400;-80
2022/03/19 12:27:56;;;;;;;14.07;3.53;;;16.70;99.90;;;;;;5047928;28;20374;-85
2022/03/19 12:30:25;;;;;;;15.82;3.63;;;16.70;99.90;;;;;;5053463;28;20390;-84
2022/03/19 12:32:57;;;;;;;19.33;3.75;;;16.70;99.90;;;;;;5068135;28;20511;-80
2022/03/19 12:35:44;;;;;;;17.70;3.50;;;16.80;99.90;;;;;;5067925;28;20378;-81
2022/03/19 12:38:22;;;;;;;17.00;3.92;;;16.70;99.90;;;;;;5067186;28;20390;-84
2022/03/19 12:43:47;;;;;;;17.50;3.97;;;16.80;99.90;;;;;;5104981;28;20469;-84
2022/03/19 12:46:23;;;;;;;16.02;3.63;;;16.80;99.90;;;;;;5104639;28;20379;-81
2022/03/19 12:48:50;;;;;;;17.35;3.72;;;16.80;99.90;;;;;;5103069;28;20767;-84
2022/03/19 12:51:25;;;;;;;16.33;3.50;;;16.90;99.90;;;;;;5104479;28;20919;-85
2022/03/19 12:53:52;;;;;;;17.83;3.50;;;16.90;99.90;;;;;;5103244;28;20399;-85
2022/03/19 12:56:25;;;;;;;19.10;3.80;;;16.90;99.90;;;;;;5104619;28;20731;-84
2022/03/19 12:58:58;;;;;;;19.42;3.65;;;16.90;99.90;;;;;;5104246;28;20399;-81
2022/03/19 13:01:27;;;;;;;19.10;3.92;;;16.90;99.90;;;;;;5103375;28;20467;-80
2022/03/19 13:03:56;;;;;;;14.75;3.58;;;16.90;99.90;;;;;;5104504;28;20375;-84
2022/03/19 13:06:29;;;;;;;15.93;3.40;;;16.80;99.90;;;;;;5104567;28;20367;-83